NC14 weather

Boone Inc Airport
Boone, North Carolina, United States

Public forecast

Using degrees Fahrenheit for public forecast. Weather courtesy of forecast.io.

Closest aviation weather report (METAR) to Boone Inc Airport

Closest report is Ashe County Airport, 17.7 nm (32.8 km) NE. Retrieved 2019/10/15 02:35 UTC (15 minutes ago):

KGEV 150235Z AUTO 26004KT 10SM CLR 12/02 A3019 RMK AO2 T01200017

Closest aviation forecast (TAF) to Boone Inc Airport

Closest forecast is Hickory Regional Airport, 29.9 nm (55.4 km) SSE. Retrieved 2019-10-15 00:42 UTC (2 hours ago):

TAF KHKY 142340Z 1500/1524 VRB02KT P6SM SKC FM151500 07004KT P6SM SCT250 FM151800 14004KT P6SM SCT150 BKN250